Flight Track Log - Related Links

Times and Time Zones

All times are in EDT time to prevent confusion due to time zone crossing. See the SWA1586 flight status page for this flight to view local times or setup timezone preferences in your user account.

Time Position Orientation Groundspeed Altitude Reporting Facility
EDT Latitude Longitude Course Direction KTS MPH feet Rate Location/Type
Sun 11:49:24 PM 39.8728 -104.5911 111° Southeast 181 208 6,900  Level Denver Center
Sun 11:50:25 PM 39.8517 -104.5186 111° Southeast 213 245 10,100 2,803 Climbing Denver Center
Sun 11:51:26 PM 39.8272 -104.4044 106° East 306 352 12,600 3,098 Climbing Denver Center
Sun 11:52:27 PM 39.8114 -104.2831 100° East 340 391 16,400 3,492 Climbing Denver Center
Sun 11:53:28 PM 39.7939 -104.1467 99° East 380 437 19,700 2,852 Climbing Denver Center
Sun 11:54:29 PM 39.7764 -104.0083 99° East 399 459 22,200 2,508 Climbing Denver Center
Sun 11:55:30 PM 39.7544 -103.8531 100° East 419 482 24,800 2,508 Climbing Denver Center
Sun 11:56:31 PM 39.7381 -103.6967 98° East 429 494 27,300 2,311 Climbing Denver Center
Sun 11:57:32 PM 39.7250 -103.5308 96° East 453 521 29,500 2,115 Climbing Denver Center
Sun 11:58:33 PM 39.7114 -103.3597 96° East 470 541 31,600 2,115 Climbing Denver Center
Sun 11:59:34 PM 39.7011 -103.1842 94° East 482 555 33,800 2,213 Climbing Denver Center
Mon 12:00:35 AM 39.6969 -103.0125 92° East 474 545 36,100 2,098 Climbing Denver Center
Mon 12:01:37 AM 39.6919 -102.8419 92° East 469 540 38,100 1,659 Climbing Denver Center
Mon 12:02:38 AM 39.6864 -102.6783 92° East 462 532 39,500 1,377 Climbing Denver Center
Mon 12:03:39 AM 39.6803 -102.4942 92° East 457 526 40,900 738 Climbing Denver Center
Mon 12:04:40 AM 39.6750 -102.3342 92° East 464 534 41,000 49 Climbing Denver Center
Mon 12:05:41 AM 39.6692 -102.1736 93° East 468 539 41,000  Level Denver Center
Mon 12:06:42 AM 39.6625 -101.9875 93° East 464 534 41,000  Level Denver Center
Mon 12:07:43 AM 39.6567 -101.8278 93° East 465 535 41,000  Level Denver Center
Mon 12:08:44 AM 39.6489 -101.6408 93° East 465 535 41,000  Level Denver Center
Mon 12:09:45 AM 39.6419 -101.4800 93° East 469 540 41,000  Level Denver Center
Mon 12:10:46 AM 39.6350 -101.3186 93° East 469 540 41,000  Level Denver Center
Mon 12:11:47 AM 39.6261 -101.1286 93° East 474 545 41,000  Level Denver Center
Mon 12:12:48 AM 39.6197 -100.9703 93° East 468 539 41,000  Level Denver Center
Mon 12:13:49 AM 39.6119 -100.8106 94° East 465 535 41,000  Level Denver Center
Mon 12:14:50 AM 39.6031 -100.6242 93° East 466 536 41,000  Level Denver Center
Mon 12:15:51 AM 39.5956 -100.4647 93° East 466 536 41,000  Level Denver Center
Mon 12:16:52 AM 39.5853 -100.2786 94° East 464 534 41,000  Level Denver Center
Mon 12:17:53 AM 39.5769 -100.1233 94° East 456 525 41,000  Level Denver Center
Mon 12:19:31 AM 39.5625 -99.8636 94° East 462 532 41,000  Level Denver Center
Mon 12:20:32 AM 39.5528 -99.7000 94° East 458 527 41,000  Level Denver Center
Mon 12:21:33 AM 39.5431 -99.5356 94° East 460 529 41,000  Level Denver Center
Mon 12:22:34 AM 39.5333 -99.3694 94° East 463 533 41,000  Level Denver Center
Mon 12:24:24 AM 39.5131 -99.0356 94° East 463 533 41,000  Level Kansas City Center
Mon 12:25:24 AM 39.5022 -98.8728 95° East 458 527 41,000  Level Kansas City Center
Mon 12:25:57 AM 39.4986 -98.8100 94° East 459 528 41,000  Level Minneapolis Center
Mon 12:26:38 AM 39.4892 -98.6772 95° East 462 532 41,000  Level Denver Center
Mon 12:27:39 AM 39.4783 -98.5133 95° East 461 531 41,000  Level Denver Center
Mon 12:28:40 AM 39.4669 -98.3458 95° East 467 537 41,000  Level Denver Center
Mon 12:29:41 AM 39.4544 -98.1797 96° East 468 539 41,000  Level Denver Center
Mon 12:30:26 AM 39.4461 -98.0383 94° East 466 536 41,000  Level Kansas City Center
Mon 12:31:26 AM 39.4342 -97.8803 96° East 463 533 41,000  Level Kansas City Center
Mon 12:32:27 AM 39.4219 -97.7122 95° East 464 534 41,000  Level Kansas City Center
Mon 12:33:27 AM 39.4094 -97.5492 96° East 458 527 41,000 -350 Level Kansas City Center
Mon 12:34:27 AM 39.3967 -97.3853 96° East 452 520 40,300 -793 Descending Kansas City Center
Mon 12:35:28 AM 39.3881 -97.2328 94° East 447 514 39,400 -645 Descending Kansas City Center
Mon 12:36:28 AM 39.3797 -97.0783 94° East 449 517 39,000 -600 Descending Kansas City Center
Mon 12:37:28 AM 39.3675 -96.9014 95° East 445 512 38,200 -843 Descending Kansas City Center
Mon 12:38:29 AM 39.3572 -96.7500 95° East 441 507 37,300 -595 Descending Kansas City Center
Mon 12:39:29 AM 39.3464 -96.5967 95° East 447 514 37,000 -150 Descending Kansas City Center
Mon 12:40:29 AM 39.3367 -96.4442 95° East 450 518 37,000  Level Kansas City Center
Mon 12:41:30 AM 39.3253 -96.2819 95° East 453 521 37,000  Level Kansas City Center
Mon 12:42:30 AM 39.3103 -96.1044 96° East 456 525 37,000  Level Kansas City Center
Mon 12:43:30 AM 39.2992 -95.9494 95° East 455 524 37,000  Level Kansas City Center
Mon 12:44:30 AM 39.2861 -95.7681 95° East 454 522 37,000  Level Kansas City Center
Mon 12:45:31 AM 39.2739 -95.6125 96° East 454 522 37,000  Level Kansas City Center
Mon 12:46:31 AM 39.2603 -95.4372 96° East 457 526 37,000  Level Kansas City Center
Mon 12:47:31 AM 39.2475 -95.2742 96° East 458 527 37,000  Level Kansas City Center
Mon 12:48:31 AM 39.2336 -95.1128 96° East 456 525 37,000  Level Kansas City Center
Mon 12:49:32 AM 39.2208 -94.9500 96° East 457 526 37,000  Level Kansas City Center
Mon 12:50:32 AM 39.2067 -94.7925 97° East 462 532 37,000  Level Kansas City Center
Mon 12:51:32 AM 39.1947 -94.6353 96° East 462 532 37,000  Level Kansas City Center
Mon 12:52:32 AM 39.1808 -94.4794 97° East 457 526 37,000  Level Kansas City Center
Mon 12:53:33 AM 39.1650 -94.2967 96° East 459 528 37,000  Level Kansas City Center
Mon 12:54:33 AM 39.1508 -94.1411 97° East 458 527 37,000  Level Kansas City Center
Mon 12:55:33 AM 39.1367 -93.9861 97° East 457 526 37,000  Level Kansas City Center
Mon 12:56:33 AM 39.1222 -93.8311 97° East 454 522 37,000  Level Kansas City Center
Mon 12:57:33 AM 39.1058 -93.6506 97° East 455 524 37,000  Level Kansas City Center
Mon 12:58:34 AM 39.0908 -93.4956 97° East 456 525 37,000  Level Kansas City Center
Mon 12:59:34 AM 39.0781 -93.3519 96° East 452 520 37,000  Level Kansas City Center
Mon 01:00:34 AM 39.0631 -93.1928 97° East 453 521 37,000  Level Kansas City Center
Mon 01:01:34 AM 39.0467 -93.0344 98° East 453 521 37,000  Level Kansas City Center
Mon 01:02:34 AM 39.0272 -92.8450 97° East 452 520 37,000 -1,000 Level Kansas City Center
Mon 01:03:34 AM 39.0136 -92.7064 97° East 446 513 35,000 -2,132 Descending Kansas City Center
Mon 01:04:35 AM 38.9975 -92.5525 98° East 437 503 32,700 -2,281 Descending Kansas City Center
Mon 01:05:35 AM 38.9814 -92.3997 98° East 432 497 30,400 -2,250 Descending Kansas City Center
Mon 01:06:35 AM 38.9650 -92.2503 98° East 425 489 28,200 -2,150 Descending Kansas City Center
Mon 01:07:35 AM 38.9500 -92.1064 98° East 411 473 26,100 -2,100 Descending Kansas City Center
Mon 01:08:35 AM 38.9347 -91.9664 98° East 399 459 24,000 -2,050 Descending Kansas City Center
Mon 01:09:35 AM 38.9200 -91.8311 98° East 386 444 22,000 -2,033 Descending Kansas City Center
Mon 01:10:36 AM 38.9044 -91.6914 98° East 376 433 19,900 -1,983 Descending Kansas City Center
Mon 01:11:36 AM 38.8897 -91.5628 98° East 368 423 18,000 -1,900 Descending Kansas City Center
Mon 01:12:36 AM 38.8747 -91.4367 99° East 361 415 16,100 -2,250 Descending Kansas City Center
Mon 01:13:36 AM 38.8606 -91.3106 98° East 359 413 13,500 -2,300 Descending Kansas City Center
Mon 01:14:36 AM 38.8472 -91.1875 98° East 353 406 11,500 -1,450 Descending Kansas City Center
Mon 01:15:36 AM 38.8408 -91.0711 94° East 332 382 10,600 -1,100 Descending Kansas City Center
Mon 01:16:36 AM 38.8344 -90.9669 94° East 302 348 9,300 -1,350 Descending Kansas City Center
Mon 01:17:36 AM 38.8275 -90.8664 95° East 289 333 7,900 -1,388 Descending Kansas City Center
Mon 01:18:37 AM 38.8211 -90.7664 95° East 285 328 6,500 -1,339 Descending Kansas City Center
Mon 01:19:37 AM 38.8144 -90.6753 95° East 273 314 5,200 -1,350 Descending Kansas City Center
Mon 01:20:37 AM 38.8097 -90.5939 94° East 249 287 3,800 -1,200 Descending Kansas City Center
Mon 01:21:37 AM 38.8042 -90.5197 95° East 228 262 2,800 -900 Descending Kansas City Center
Mon 01:22:37 AM 38.7931 -90.4583 103° East 198 228 2,000 -800 Descending Kansas City Center
Mon 01:23:37 AM 38.7725 -90.4158 122° Southeast 161 185 1,200 -700 Descending Kansas City Center
Mon 01:24:37 AM 38.7539 -90.3781 122° Southeast 138 159 600 -600 Descending Kansas City Center
Mon 01:26:00 AM 38.7487 -90.3700 108° East  Level Estimated

Login

Don't have an account? Register now (free) for customized features, flight alerts, and more!